createdAt,value
2022-12-03T00:00:35.162Z,27.43
2022-12-03T00:03:19.367Z,30.00
2022-12-03T00:06:03.344Z,31.03
2022-12-03T00:08:48.685Z,27.63
2022-12-03T00:11:32.760Z,24.23
2022-12-03T00:14:16.479Z,28.53
2022-12-03T00:17:00.256Z,30.17
2022-12-03T00:19:44.059Z,30.03
2022-12-03T00:22:29.135Z,28.33
2022-12-03T00:25:14.473Z,28.47
2022-12-03T00:27:58.124Z,28.73
2022-12-03T00:30:41.964Z,30.77
2022-12-03T00:33:25.800Z,27.93
2022-12-03T00:36:10.051Z,26.60
2022-12-03T00:38:53.862Z,24.83
2022-12-03T00:41:39.079Z,27.50
2022-12-03T00:44:23.084Z,25.57
2022-12-03T00:47:07.054Z,24.13
2022-12-03T00:49:51.092Z,24.63
2022-12-03T00:52:35.128Z,24.43
2022-12-03T00:55:19.350Z,24.03
2022-12-03T00:58:04.740Z,28.77
2022-12-03T01:00:48.874Z,25.63
2022-12-03T01:03:32.917Z,27.50
2022-12-03T01:06:16.963Z,28.23
2022-12-03T01:09:00.942Z,26.37
2022-12-03T01:11:45.065Z,27.60
2022-12-03T01:14:30.470Z,27.93
2022-12-03T01:17:14.709Z,33.37
2022-12-03T01:19:59.311Z,34.07
2022-12-03T01:22:43.270Z,29.23
2022-12-03T01:25:27.236Z,30.23
2022-12-03T01:28:11.389Z,27.47
2022-12-03T01:31:14.007Z,31.97
2022-12-03T01:33:58.064Z,31.73
2022-12-03T01:36:42.388Z,30.70
2022-12-03T01:39:26.429Z,29.67
2022-12-03T01:42:13.261Z,35.67
2022-12-03T01:44:59.257Z,31.13
2022-12-03T01:47:44.656Z,31.63
2022-12-03T01:50:33.244Z,32.03
2022-12-03T01:53:19.827Z,30.30
2022-12-03T01:56:03.735Z,34.67
2022-12-03T01:58:48.272Z,30.93
2022-12-03T02:01:32.165Z,30.30
2022-12-03T02:04:20.082Z,27.47
2022-12-03T02:07:21.405Z,27.17
2022-12-03T02:10:06.101Z,25.20
2022-12-03T02:12:53.837Z,25.70
2022-12-03T02:15:39.362Z,26.97
2022-12-03T02:18:23.153Z,28.07
2022-12-03T02:21:16.714Z,25.60
2022-12-03T02:24:08.904Z,26.70
2022-12-03T02:26:54.100Z,27.80
2022-12-03T02:29:38.052Z,24.63
2022-12-03T02:32:23.527Z,24.67
2022-12-03T02:35:08.096Z,25.27
2022-12-03T02:37:55.931Z,26.63
2022-12-03T02:40:40.356Z,21.37
2022-12-03T02:43:39.610Z,20.63
2022-12-03T02:46:23.504Z,19.77
2022-12-03T02:49:08.023Z,23.10
2022-12-03T02:51:51.862Z,20.33
2022-12-03T02:54:36.280Z,20.67
2022-12-03T02:57:20.162Z,20.37
2022-12-03T03:00:06.160Z,22.73
2022-12-03T03:02:51.250Z,20.17
2022-12-03T03:05:37.738Z,23.23
2022-12-03T03:08:21.577Z,24.17
2022-12-03T03:11:05.707Z,23.90
2022-12-03T03:13:49.499Z,24.50
2022-12-03T03:16:36.263Z,26.17
2022-12-03T03:19:20.864Z,22.10
2022-12-03T03:22:04.667Z,22.37
2022-12-03T03:24:48.491Z,23.60
2022-12-03T03:27:32.668Z,21.70
2022-12-03T03:30:16.903Z,19.73
2022-12-03T03:33:02.394Z,21.10
2022-12-03T03:35:48.321Z,21.27
2022-12-03T03:38:33.628Z,20.43
2022-12-03T03:41:18.487Z,17.90
2022-12-03T03:44:02.633Z,19.27
2022-12-03T03:46:46.316Z,22.47
2022-12-03T03:49:31.541Z,17.07
2022-12-03T03:52:16.689Z,19.07
2022-12-03T03:55:00.693Z,19.53
2022-12-03T03:57:44.495Z,17.57
2022-12-03T04:00:28.511Z,17.50
2022-12-03T04:03:12.833Z,18.00
2022-12-03T04:05:58.104Z,13.97
2022-12-03T04:08:41.823Z,16.33
2022-12-03T04:11:42.644Z,13.67
2022-12-03T04:14:26.372Z,17.30
2022-12-03T04:17:10.014Z,13.30
2022-12-03T04:19:53.753Z,15.13
2022-12-03T04:22:40.561Z,15.03
2022-12-03T04:25:42.095Z,13.67
2022-12-03T04:28:43.017Z,15.97
2022-12-03T04:31:44.539Z,16.83
2022-12-03T04:34:42.148Z,15.07
2022-12-03T04:37:26.020Z,19.27
2022-12-03T04:40:25.635Z,17.60
2022-12-03T04:43:09.287Z,19.53
2022-12-03T04:45:53.016Z,19.90
2022-12-03T04:48:36.721Z,19.67
2022-12-03T04:51:20.488Z,21.33
2022-12-03T04:54:04.285Z,19.40
2022-12-03T04:56:49.417Z,22.00
2022-12-03T04:59:34.322Z,19.73
2022-12-03T05:02:18.622Z,29.77
2022-12-03T05:05:02.318Z,26.43
2022-12-03T05:07:46.879Z,23.90
2022-12-03T05:10:30.671Z,25.03
2022-12-03T05:13:15.837Z,24.00
2022-12-03T05:15:59.833Z,26.00
2022-12-03T05:18:43.814Z,28.53
2022-12-03T05:21:27.926Z,30.93
2022-12-03T05:24:11.878Z,29.80
2022-12-03T05:26:55.850Z,27.10
2022-12-03T05:29:41.277Z,25.90
2022-12-03T05:32:25.366Z,27.47
2022-12-03T05:35:10.768Z,29.27
2022-12-03T05:37:55.592Z,29.83
2022-12-03T05:40:39.692Z,25.33
2022-12-03T05:43:22.550Z,32.33
2022-12-03T05:46:08.106Z,26.33
2022-12-03T05:48:52.051Z,28.73
2022-12-03T05:51:35.974Z,34.10
2022-12-03T05:54:19.921Z,25.93
2022-12-03T05:57:03.959Z,30.27
2022-12-03T05:59:48.088Z,24.00
2022-12-03T06:02:33.798Z,25.07
2022-12-03T06:05:19.586Z,27.27
2022-12-03T06:08:03.709Z,28.17
2022-12-03T06:10:47.802Z,33.80
2022-12-03T06:13:31.831Z,26.47
2022-12-03T06:16:16.016Z,26.27
2022-12-03T06:19:01.568Z,26.37
2022-12-03T06:21:45.477Z,27.20
2022-12-03T06:24:29.422Z,27.87
2022-12-03T06:27:13.537Z,26.03
2022-12-03T06:29:57.445Z,25.33
2022-12-03T06:32:41.279Z,22.70
2022-12-03T06:35:26.483Z,22.73
2022-12-03T06:38:10.321Z,24.43
2022-12-03T06:40:54.071Z,24.83
2022-12-03T06:43:37.838Z,22.60
2022-12-03T06:46:21.662Z,22.27
2022-12-03T06:49:05.915Z,24.07
2022-12-03T06:51:51.083Z,22.67
2022-12-03T06:54:34.906Z,23.40
2022-12-03T06:57:18.706Z,22.70
2022-12-03T07:00:02.379Z,20.40
2022-12-03T07:02:47.762Z,18.03
2022-12-03T07:05:31.591Z,25.40
2022-12-03T07:08:16.902Z,19.57
2022-12-03T07:11:00.884Z,18.87
2022-12-03T07:13:45.855Z,21.83
2022-12-03T07:16:30.672Z,23.13
2022-12-03T07:19:14.981Z,18.73
2022-12-03T07:21:58.967Z,26.00
2022-12-03T07:24:44.420Z,28.70
2022-12-03T07:27:28.357Z,22.80
2022-12-03T07:30:15.239Z,24.10
2022-12-03T07:32:59.255Z,22.63
2022-12-03T07:35:44.268Z,25.13
2022-12-03T07:38:28.268Z,29.57
2022-12-03T07:41:13.754Z,28.20
2022-12-03T07:43:57.783Z,25.40
2022-12-03T07:46:42.193Z,20.90
2022-12-03T07:49:26.893Z,17.90
2022-12-03T07:52:10.984Z,18.47
2022-12-03T07:54:55.239Z,20.33
2022-12-03T07:57:41.101Z,17.73
2022-12-03T08:00:25.401Z,20.47
2022-12-03T08:03:09.552Z,17.80
2022-12-03T08:05:53.560Z,15.57
2022-12-03T08:08:37.541Z,15.70
2022-12-03T08:11:21.726Z,15.77
2022-12-03T08:14:14.302Z,17.50
2022-12-03T08:16:58.323Z,23.17
2022-12-03T08:19:46.599Z,16.17
2022-12-03T08:22:30.933Z,15.90
2022-12-03T08:25:19.014Z,18.40
2022-12-03T08:28:12.320Z,28.27
2022-12-03T08:31:04.008Z,20.67
2022-12-03T08:33:50.677Z,18.07
2022-12-03T08:36:36.668Z,19.43
2022-12-03T08:39:29.915Z,20.70
2022-12-03T08:42:34.980Z,19.30
2022-12-03T08:45:39.964Z,20.30
2022-12-03T08:48:30.178Z,20.17
2022-12-03T08:51:20.483Z,16.67
2022-12-03T08:54:12.867Z,26.30
2022-12-03T08:56:56.845Z,19.17
2022-12-03T08:59:45.342Z,33.73
2022-12-03T09:02:33.600Z,28.47
2022-12-03T09:05:22.695Z,49.13
2022-12-03T09:08:06.816Z,27.23
2022-12-03T09:10:50.909Z,41.63
2022-12-03T09:13:34.824Z,24.47
2022-12-03T09:16:19.967Z,20.40
2022-12-03T09:19:03.880Z,20.40
2022-12-03T09:21:48.970Z,20.17
2022-12-03T09:24:32.944Z,24.43
2022-12-03T09:27:16.791Z,23.33
2022-12-03T09:30:00.521Z,22.60
2022-12-03T09:32:44.348Z,19.73
2022-12-03T09:35:28.224Z,22.07
2022-12-03T09:38:13.350Z,19.30
2022-12-03T09:40:57.504Z,24.77
2022-12-03T09:44:03.326Z,20.57
2022-12-03T09:46:47.355Z,18.07
2022-12-03T09:49:33.117Z,25.33
2022-12-03T09:52:22.677Z,24.37
2022-12-03T09:55:17.018Z,24.77
2022-12-03T09:58:01.398Z,21.50
2022-12-03T10:00:48.494Z,27.70
2022-12-03T10:03:33.660Z,21.07
2022-12-03T10:06:20.062Z,42.83
2022-12-03T10:09:06.244Z,29.87
2022-12-03T10:11:51.508Z,22.20
2022-12-03T10:14:35.804Z,25.03
2022-12-03T10:17:19.751Z,21.57
2022-12-03T10:20:03.603Z,29.57
2022-12-03T10:22:48.984Z,35.23
2022-12-03T10:25:32.913Z,19.73
2022-12-03T10:28:28.994Z,28.37
2022-12-03T10:31:14.434Z,20.87
2022-12-03T10:33:59.568Z,21.40
2022-12-03T10:36:43.250Z,20.20
2022-12-03T10:39:27.107Z,31.90
2022-12-03T10:42:16.558Z,33.73
2022-12-03T10:45:19.849Z,30.17
2022-12-03T10:48:07.309Z,20.30
2022-12-03T10:50:54.118Z,21.53
2022-12-03T10:53:41.576Z,23.73
2022-12-03T10:56:27.784Z,18.80
2022-12-03T10:59:16.518Z,19.87
2022-12-03T11:02:04.233Z,20.83
2022-12-03T11:04:48.935Z,21.73
2022-12-03T11:07:33.243Z,18.87
2022-12-03T11:10:20.157Z,22.83
2022-12-03T11:13:44.096Z,18.63
2022-12-03T11:17:07.935Z,26.33
2022-12-03T11:19:53.766Z,23.57
2022-12-03T11:22:46.665Z,29.67
2022-12-03T11:25:50.587Z,28.00
2022-12-03T11:28:51.278Z,27.27
2022-12-03T11:31:40.731Z,25.87
2022-12-03T11:34:48.926Z,22.47
2022-12-03T11:37:34.025Z,25.87
2022-12-03T11:40:28.459Z,23.23
2022-12-03T11:43:12.252Z,34.73
2022-12-03T11:46:02.687Z,24.20
2022-12-03T11:48:49.525Z,27.90
2022-12-03T11:51:33.704Z,23.10
2022-12-03T11:54:22.702Z,23.57
2022-12-03T11:57:29.033Z,35.30
2022-12-03T12:00:24.575Z,24.00
2022-12-03T12:03:23.872Z,24.10
2022-12-03T12:06:10.003Z,26.13
2022-12-03T12:08:58.708Z,45.27
2022-12-03T12:11:44.019Z,37.23
2022-12-03T12:14:27.943Z,42.50
2022-12-03T12:17:30.514Z,41.00
2022-12-03T12:20:26.274Z,30.23
2022-12-03T12:23:24.067Z,30.07
2022-12-03T12:26:08.146Z,29.23
2022-12-03T12:28:53.364Z,28.20
2022-12-03T12:31:37.087Z,28.07
2022-12-03T12:34:20.871Z,34.60
2022-12-03T12:37:10.141Z,28.23
2022-12-03T12:39:57.337Z,26.63
2022-12-03T12:42:53.699Z,23.10
2022-12-03T12:45:41.239Z,30.30
2022-12-03T12:48:27.915Z,24.97
2022-12-03T12:51:18.779Z,27.43
2022-12-03T12:54:03.451Z,23.17
2022-12-03T12:56:50.081Z,34.13
2022-12-03T12:59:34.185Z,49.03
2022-12-03T13:02:42.595Z,30.13
2022-12-03T13:05:27.927Z,33.90
2022-12-03T13:08:22.287Z,31.03
2022-12-03T13:11:06.548Z,34.10
2022-12-03T13:13:50.328Z,30.57
2022-12-03T13:16:35.626Z,37.40
2022-12-03T13:19:26.542Z,30.13
2022-12-03T13:22:14.544Z,30.83
2022-12-03T13:25:37.942Z,28.67
2022-12-03T13:28:22.642Z,30.03
2022-12-03T13:31:23.099Z,33.60
2022-12-03T13:34:17.256Z,36.97
2022-12-03T13:37:03.257Z,33.03
2022-12-03T13:39:48.926Z,34.43
2022-12-03T13:42:42.227Z,53.73
2022-12-03T13:45:32.940Z,50.10
2022-12-03T13:48:22.978Z,45.50
2022-12-03T13:51:21.284Z,45.00
2022-12-03T13:54:14.604Z,51.50
2022-12-03T13:57:00.303Z,50.67
2022-12-03T13:59:44.168Z,76.87
2022-12-03T14:02:28.003Z,57.40
2022-12-03T14:05:12.097Z,47.60
2022-12-03T14:08:01.860Z,53.63
2022-12-03T14:10:47.281Z,53.97
2022-12-03T14:13:31.051Z,69.10
2022-12-03T14:16:14.915Z,57.77
2022-12-03T14:18:58.827Z,54.07
2022-12-03T14:21:42.784Z,55.00
2022-12-03T14:24:26.731Z,41.43
2022-12-03T14:27:11.998Z,36.17
2022-12-03T14:29:56.423Z,35.77
2022-12-03T14:32:40.746Z,31.23
2022-12-03T14:35:24.732Z,37.77
2022-12-03T14:38:08.774Z,43.27
2022-12-03T14:40:52.727Z,62.07
2022-12-03T14:43:37.976Z,57.70
2022-12-03T14:46:21.773Z,34.23
2022-12-03T14:49:05.582Z,59.80
2022-12-03T14:51:49.285Z,35.47
2022-12-03T14:54:33.163Z,31.33
2022-12-03T14:57:17.430Z,29.93
2022-12-03T15:00:02.636Z,33.17
2022-12-03T15:02:47.300Z,31.30
2022-12-03T15:05:31.194Z,35.23
2022-12-03T15:08:14.916Z,29.57
2022-12-03T15:10:58.755Z,31.00
2022-12-03T15:13:42.567Z,33.83
2022-12-03T15:16:27.843Z,45.53
2022-12-03T15:19:11.691Z,33.77
2022-12-03T15:21:55.536Z,33.90
2022-12-03T15:24:39.313Z,33.50
2022-12-03T15:27:23.518Z,30.10
2022-12-03T15:30:08.820Z,48.33
2022-12-03T15:32:53.936Z,40.23
2022-12-03T15:35:37.868Z,37.43
2022-12-03T15:38:21.717Z,35.60
2022-12-03T15:41:21.673Z,27.17
2022-12-03T15:44:05.708Z,35.70
2022-12-03T15:46:49.584Z,44.40
2022-12-03T15:49:34.680Z,36.63
2022-12-03T15:52:18.760Z,39.57
2022-12-03T15:55:02.816Z,33.70
2022-12-03T15:57:47.510Z,37.70
2022-12-03T16:00:31.376Z,28.97
2022-12-03T16:03:15.956Z,42.20
2022-12-03T16:06:01.195Z,50.97
2022-12-03T16:08:45.190Z,39.80
2022-12-03T16:11:28.906Z,49.13
2022-12-03T16:14:12.586Z,74.87
2022-12-03T16:16:56.506Z,72.43
2022-12-03T16:19:40.512Z,55.47
2022-12-03T16:22:26.107Z,52.87
2022-12-03T16:25:10.346Z,59.77
2022-12-03T16:27:54.305Z,41.47
2022-12-03T16:30:38.360Z,34.47
2022-12-03T16:33:27.263Z,41.73
2022-12-03T16:36:11.942Z,58.87
2022-12-03T16:38:58.247Z,48.33
2022-12-03T16:41:42.218Z,36.37
2022-12-03T16:44:43.664Z,51.57
2022-12-03T16:47:33.366Z,38.87
2022-12-03T16:50:24.319Z,35.77
2022-12-03T16:53:13.268Z,37.40
2022-12-03T16:55:58.780Z,41.53
2022-12-03T16:58:42.874Z,44.40
2022-12-03T17:01:26.963Z,34.07
2022-12-03T17:04:11.113Z,36.63
2022-12-03T17:06:55.116Z,31.43
2022-12-03T17:09:39.765Z,39.57
2022-12-03T17:12:25.509Z,29.73
2022-12-03T17:15:10.336Z,36.33
2022-12-03T17:17:54.403Z,26.43
2022-12-03T17:20:38.885Z,34.50
2022-12-03T17:23:22.913Z,56.97
2022-12-03T17:26:06.978Z,25.13
2022-12-03T17:28:52.453Z,23.93
2022-12-03T17:31:41.723Z,25.07
2022-12-03T17:34:26.362Z,27.43
2022-12-03T17:37:10.291Z,32.93
2022-12-03T17:39:54.573Z,22.57
2022-12-03T17:42:38.799Z,27.97
2022-12-03T17:45:24.175Z,35.33
2022-12-03T17:48:08.572Z,34.60
2022-12-03T17:50:55.480Z,53.57
2022-12-03T17:53:39.469Z,42.70
2022-12-03T17:56:23.510Z,38.70
2022-12-03T17:59:07.600Z,37.30
2022-12-03T18:01:53.213Z,35.50
2022-12-03T18:04:37.365Z,27.67
2022-12-03T18:07:21.379Z,36.57
2022-12-03T18:10:06.265Z,30.63
2022-12-03T18:12:50.256Z,31.73
2022-12-03T18:15:34.271Z,28.57
2022-12-03T18:18:19.629Z,23.67
2022-12-03T18:21:04.417Z,26.87
2022-12-03T18:23:48.745Z,30.53
2022-12-03T18:26:33.173Z,23.13
2022-12-03T18:29:17.238Z,27.90
2022-12-03T18:32:01.335Z,32.73
2022-12-03T18:34:46.863Z,23.63
2022-12-03T18:37:32.326Z,22.53
2022-12-03T18:40:20.320Z,17.47
2022-12-03T18:43:07.149Z,24.20
2022-12-03T18:45:51.154Z,29.07
2022-12-03T18:48:35.112Z,28.70
2022-12-03T18:51:23.650Z,20.37
2022-12-03T18:54:12.756Z,31.57
2022-12-03T18:56:56.768Z,27.17
2022-12-03T18:59:40.706Z,27.10
2022-12-03T19:05:28.952Z,28.03
2022-12-03T19:08:15.478Z,25.67
2022-12-03T19:11:01.368Z,25.03
2022-12-03T19:13:45.989Z,27.83
2022-12-03T19:16:30.622Z,22.70
2022-12-03T19:19:14.620Z,25.23
2022-12-03T19:21:58.751Z,29.40
2022-12-03T19:24:44.465Z,47.87
2022-12-03T19:27:30.779Z,73.87
2022-12-03T19:30:15.381Z,33.90
2022-12-03T19:32:59.347Z,27.07
2022-12-03T19:35:43.319Z,30.67
2022-12-03T19:38:29.211Z,32.70
2022-12-03T19:41:14.687Z,35.40
2022-12-03T19:43:59.523Z,34.27
2022-12-03T19:46:44.370Z,26.93
2022-12-03T19:49:28.462Z,29.43
2022-12-03T19:52:12.486Z,39.10
2022-12-03T19:54:56.682Z,29.07
2022-12-03T19:57:42.167Z,31.23
2022-12-03T20:00:26.336Z,29.50
2022-12-03T20:03:10.377Z,28.37
2022-12-03T20:05:54.954Z,28.47
2022-12-03T20:08:39.183Z,21.37
2022-12-03T20:11:24.114Z,30.27
2022-12-03T20:14:12.700Z,33.07
2022-12-03T20:16:56.763Z,29.27
2022-12-03T20:19:40.810Z,33.63
2022-12-03T20:22:24.741Z,33.87
2022-12-03T20:25:09.302Z,29.80
2022-12-03T20:27:53.357Z,29.50
2022-12-03T20:30:38.443Z,22.67
2022-12-03T20:33:22.131Z,22.20
2022-12-03T20:36:06.406Z,22.70
2022-12-03T20:38:54.545Z,26.57
2022-12-03T20:41:39.106Z,24.83
2022-12-03T20:44:23.000Z,26.17
2022-12-03T20:47:08.733Z,24.77
2022-12-03T20:49:52.782Z,20.57
2022-12-03T20:52:37.719Z,17.90
2022-12-03T20:55:21.540Z,18.37
2022-12-03T20:58:05.462Z,19.23
2022-12-03T21:00:49.320Z,22.90
2022-12-03T21:03:34.557Z,25.03
2022-12-03T21:06:18.706Z,30.23
2022-12-03T21:09:02.589Z,24.77
2022-12-03T21:11:46.556Z,17.90
2022-12-03T21:14:30.287Z,20.83
2022-12-03T21:17:14.201Z,23.60
2022-12-03T21:19:59.697Z,19.70
2022-12-03T21:22:43.374Z,18.80
2022-12-03T21:25:27.118Z,26.27
2022-12-03T21:28:10.929Z,21.93
2022-12-03T21:30:54.830Z,28.87
2022-12-03T21:33:38.936Z,21.53
2022-12-03T21:36:25.135Z,34.33
2022-12-03T21:39:08.875Z,20.97
2022-12-03T21:42:19.349Z,21.33
2022-12-03T21:44:56.285Z,27.20
2022-12-03T21:47:40.368Z,23.63
2022-12-03T21:50:24.193Z,29.40
2022-12-03T21:53:10.019Z,26.97
2022-12-03T21:55:53.712Z,22.60
2022-12-03T21:58:37.674Z,26.53
2022-12-03T22:01:23.693Z,30.93
2022-12-03T22:04:07.519Z,26.47
2022-12-03T22:06:51.221Z,22.67
2022-12-03T22:09:36.520Z,26.97
2022-12-03T22:12:20.338Z,25.03
2022-12-03T22:15:04.160Z,27.63
2022-12-03T22:17:48.281Z,22.10
2022-12-03T22:20:32.190Z,25.33
2022-12-03T22:23:16.438Z,24.40
2022-12-03T22:26:05.110Z,22.13
2022-12-03T22:28:50.473Z,28.17
2022-12-03T22:31:34.353Z,31.40
2022-12-03T22:34:18.211Z,28.90
2022-12-03T22:37:02.007Z,26.83
2022-12-03T22:39:46.028Z,27.47
2022-12-03T22:42:31.073Z,33.87
2022-12-03T22:45:15.071Z,34.53
2022-12-03T22:47:58.755Z,31.10
2022-12-03T22:50:44.183Z,30.27
2022-12-03T22:53:27.934Z,34.23
2022-12-03T22:56:11.949Z,33.07
2022-12-03T22:58:57.317Z,32.60
2022-12-03T23:01:42.337Z,29.30
2022-12-03T23:04:26.033Z,26.33
2022-12-03T23:07:09.717Z,28.47
2022-12-03T23:09:53.927Z,30.13
2022-12-03T23:12:37.886Z,30.53
2022-12-03T23:15:23.039Z,26.50
2022-12-03T23:18:06.850Z,25.67
2022-12-03T23:20:52.149Z,22.37
2022-12-03T23:23:36.094Z,26.90
2022-12-03T23:26:19.902Z,26.67
2022-12-03T23:29:04.679Z,27.83
2022-12-03T23:31:49.799Z,29.40
2022-12-03T23:34:33.723Z,29.30
2022-12-03T23:37:17.435Z,37.93
2022-12-03T23:40:01.199Z,38.80
2022-12-03T23:42:45.354Z,32.20
2022-12-03T23:45:29.290Z,39.10
2022-12-03T23:48:14.455Z,36.20
2022-12-03T23:50:58.206Z,30.47
2022-12-03T23:53:42.553Z,30.20
2022-12-03T23:56:29.141Z,28.57
2022-12-03T23:59:13.265Z,23.90
